createdAt,value
2019-04-03T00:00:21.233Z,5.00
2019-04-03T00:02:48.505Z,4.47
2019-04-03T00:05:15.704Z,4.70
2019-04-03T00:07:42.944Z,5.20
2019-04-03T00:10:10.510Z,4.05
2019-04-03T00:12:40.492Z,5.20
2019-04-03T00:15:07.448Z,4.83
2019-04-03T00:17:34.730Z,4.92
2019-04-03T00:20:02.185Z,4.92
2019-04-03T00:22:30.043Z,5.12
2019-04-03T00:24:57.313Z,5.12
2019-04-03T00:27:24.512Z,5.03
2019-04-03T00:29:52.180Z,5.42
2019-04-03T00:32:19.892Z,4.20
2019-04-03T00:34:47.098Z,4.00
2019-04-03T00:37:14.768Z,4.60
2019-04-03T00:39:42.117Z,5.08
2019-04-03T00:42:09.321Z,5.97
2019-04-03T00:44:36.898Z,4.30
2019-04-03T00:47:04.176Z,4.50
2019-04-03T00:49:31.489Z,5.15
2019-04-03T00:51:58.880Z,5.03
2019-04-03T00:54:26.429Z,5.40
2019-04-03T00:56:56.183Z,4.10
2019-04-03T00:59:23.029Z,4.80
2019-04-03T01:01:50.317Z,4.85
2019-04-03T01:04:17.776Z,4.25
2019-04-03T01:06:44.976Z,4.17
2019-04-03T01:09:12.201Z,4.72
2019-04-03T01:11:39.473Z,4.08
2019-04-03T01:14:06.706Z,4.50
2019-04-03T01:16:34.045Z,4.97
2019-04-03T01:19:01.272Z,5.33
2019-04-03T01:21:28.559Z,6.00
2019-04-03T01:23:55.942Z,5.92
2019-04-03T01:26:23.212Z,5.28
2019-04-03T01:28:50.450Z,5.80
2019-04-03T01:31:17.720Z,5.47
2019-04-03T01:33:46.876Z,5.10
2019-04-03T01:36:13.868Z,6.22
2019-04-03T01:38:41.179Z,5.53
2019-04-03T01:41:08.444Z,6.08
2019-04-03T01:43:35.934Z,5.22
2019-04-03T01:46:03.223Z,6.90
2019-04-03T01:48:30.524Z,6.03
2019-04-03T01:50:59.207Z,5.58
2019-04-03T01:53:26.842Z,5.87
2019-04-03T01:55:54.113Z,4.85
2019-04-03T01:58:21.363Z,5.85
2019-04-03T02:00:48.604Z,5.83
2019-04-03T02:03:15.924Z,4.60
2019-04-03T02:05:43.838Z,5.87
2019-04-03T02:08:14.221Z,5.22
2019-04-03T02:10:40.309Z,6.25
2019-04-03T02:13:07.544Z,7.10
2019-04-03T02:15:34.749Z,6.30
2019-04-03T02:18:01.954Z,6.28
2019-04-03T02:20:29.179Z,6.53
2019-04-03T02:22:59.303Z,7.08
2019-04-03T02:25:25.926Z,7.03
2019-04-03T02:27:53.421Z,6.58
2019-04-03T02:30:20.712Z,6.50
2019-04-03T02:32:48.414Z,6.62
2019-04-03T02:35:15.869Z,6.10
2019-04-03T02:37:43.181Z,6.30
2019-04-03T02:40:10.475Z,6.53
2019-04-03T02:42:40.260Z,6.72
2019-04-03T02:45:06.764Z,6.22
2019-04-03T02:47:34.690Z,5.67
2019-04-03T02:50:02.117Z,6.22
2019-04-03T02:52:29.560Z,5.87
2019-04-03T02:54:57.087Z,5.70
2019-04-03T02:57:24.381Z,5.85
2019-04-03T02:59:51.680Z,5.37
2019-04-03T03:02:18.975Z,6.95
2019-04-03T03:04:46.278Z,6.60
2019-04-03T03:07:13.549Z,6.60
2019-04-03T03:09:40.795Z,6.08
2019-04-03T03:12:08.059Z,6.80
2019-04-03T03:14:38.250Z,7.30
2019-04-03T03:17:04.773Z,6.62
2019-04-03T03:19:33.238Z,6.20
2019-04-03T03:22:00.985Z,6.60
2019-04-03T03:24:29.744Z,5.42
2019-04-03T03:26:58.091Z,5.47
2019-04-03T03:29:27.398Z,5.42
2019-04-03T03:32:08.969Z,6.17
2019-04-03T03:34:45.014Z,6.47
2019-04-03T03:36:58.743Z,6.22
2019-04-03T03:39:21.028Z,7.17
2019-04-03T03:41:48.345Z,6.00
2019-04-03T03:44:16.159Z,5.20
2019-04-03T03:46:43.470Z,4.78
2019-04-03T03:49:10.735Z,4.78
2019-04-03T03:51:38.027Z,4.90
2019-04-03T03:54:05.296Z,4.78
2019-04-03T03:56:32.939Z,4.75
2019-04-03T03:59:00.222Z,4.92
2019-04-03T04:01:30.256Z,4.78
2019-04-03T04:03:56.572Z,5.30
2019-04-03T04:06:27.913Z,4.55
2019-04-03T04:08:52.935Z,4.95
2019-04-03T04:11:20.276Z,4.40
2019-04-03T04:13:49.360Z,4.60
2019-04-03T04:16:16.708Z,4.25
2019-04-03T04:18:44.198Z,4.17
2019-04-03T04:21:11.856Z,4.53
2019-04-03T04:23:39.695Z,3.20
2019-04-03T04:26:06.941Z,3.20
2019-04-03T04:28:34.219Z,3.62
2019-04-03T04:31:01.734Z,3.27
2019-04-03T04:33:28.976Z,4.25
2019-04-03T04:35:56.288Z,3.60
2019-04-03T04:38:24.818Z,3.75
2019-04-03T04:40:52.625Z,4.08
2019-04-03T04:43:19.916Z,3.40
2019-04-03T04:45:47.268Z,3.80
2019-04-03T04:48:16.289Z,3.80
2019-04-03T04:50:43.421Z,3.62
2019-04-03T04:53:10.641Z,3.10
2019-04-03T04:55:37.844Z,3.05
2019-04-03T04:58:05.343Z,3.20
2019-04-03T05:00:33.128Z,2.70
2019-04-03T05:03:01.783Z,2.92
2019-04-03T05:05:30.726Z,3.00
2019-04-03T05:07:59.691Z,4.00
2019-04-03T05:10:27.437Z,4.40
2019-04-03T05:12:55.409Z,4.20
2019-04-03T05:15:23.723Z,4.72
2019-04-03T05:17:51.615Z,3.83
2019-04-03T05:20:20.194Z,3.80
2019-04-03T05:22:48.560Z,4.37
2019-04-03T05:25:16.159Z,4.40
2019-04-03T05:27:43.448Z,4.03
2019-04-03T05:30:10.984Z,4.03
2019-04-03T05:32:40.725Z,3.67
2019-04-03T05:35:07.401Z,4.65
2019-04-03T05:37:34.697Z,4.40
2019-04-03T05:40:01.977Z,4.45
2019-04-03T05:42:29.569Z,4.10
2019-04-03T05:44:56.973Z,4.33
2019-04-03T05:47:24.354Z,3.67
2019-04-03T05:49:55.485Z,3.98
2019-04-03T05:52:20.800Z,3.40
2019-04-03T05:54:48.132Z,3.95
2019-04-03T05:57:15.400Z,3.37
2019-04-03T05:59:44.553Z,3.40
2019-04-03T06:02:16.003Z,3.62
2019-04-03T06:04:41.922Z,3.08
2019-04-03T06:07:09.177Z,3.30
2019-04-03T06:09:36.608Z,3.17
2019-04-03T06:12:04.255Z,3.17
2019-04-03T06:14:31.525Z,3.35
2019-04-03T06:16:58.808Z,3.50
2019-04-03T06:19:26.041Z,3.52
2019-04-03T06:21:53.438Z,3.02
2019-04-03T06:24:22.306Z,3.50
2019-04-03T06:26:49.652Z,3.27
2019-04-03T06:29:18.867Z,2.50
2019-04-03T06:31:45.873Z,2.37
2019-04-03T06:34:13.101Z,2.12
2019-04-03T06:36:40.523Z,2.50
2019-04-03T06:39:07.938Z,2.70
2019-04-03T06:41:35.213Z,2.52
2019-04-03T06:44:02.444Z,2.50
2019-04-03T06:46:29.918Z,2.20
2019-04-03T06:48:57.532Z,2.10
2019-04-03T06:51:24.765Z,2.25
2019-04-03T06:53:51.995Z,2.70
2019-04-03T06:56:19.285Z,2.40
2019-04-03T06:58:46.516Z,2.42
2019-04-03T07:01:13.784Z,2.30
2019-04-03T07:03:41.213Z,2.33
2019-04-03T07:06:08.454Z,2.92
2019-04-03T07:08:38.046Z,2.77
2019-04-03T07:11:04.664Z,6.50
2019-04-03T07:13:31.868Z,6.70
2019-04-03T07:15:59.097Z,3.33
2019-04-03T07:18:26.499Z,3.02
2019-04-03T07:20:53.965Z,3.08
2019-04-03T07:23:21.695Z,3.00
2019-04-03T07:25:48.993Z,3.00
2019-04-03T07:28:16.558Z,3.33
2019-04-03T07:30:43.839Z,2.90
2019-04-03T07:33:11.109Z,2.80
2019-04-03T07:35:40.216Z,3.20
2019-04-03T07:38:07.252Z,3.65
2019-04-03T07:40:34.557Z,2.10
2019-04-03T07:43:02.176Z,1.37
2019-04-03T07:45:29.490Z,0.90
2019-04-03T07:47:56.936Z,1.10
2019-04-03T07:50:24.422Z,0.80
2019-04-03T07:52:51.854Z,0.68
2019-04-03T07:55:19.410Z,0.40
2019-04-03T07:57:46.684Z,0.90
2019-04-03T08:00:13.981Z,0.53
2019-04-03T08:02:45.371Z,0.60
2019-04-03T08:05:10.141Z,0.40
2019-04-03T08:07:37.361Z,0.33
2019-04-03T08:10:05.688Z,0.23
2019-04-03T08:12:35.084Z,0.20
2019-04-03T08:15:01.932Z,0.50
2019-04-03T08:17:29.424Z,0.45
2019-04-03T08:19:56.834Z,0.28
2019-04-03T08:22:24.089Z,0.30
2019-04-03T08:24:53.517Z,0.30
2019-04-03T08:27:22.809Z,0.30
2019-04-03T08:29:49.150Z,0.25
2019-04-03T08:32:17.087Z,0.20
2019-04-03T08:34:44.363Z,0.20
2019-04-03T08:37:11.693Z,0.20
2019-04-03T08:39:38.975Z,0.30
2019-04-03T08:42:06.278Z,0.20
2019-04-03T08:44:33.864Z,0.20
2019-04-03T08:47:02.417Z,0.20
2019-04-03T08:49:29.615Z,0.20
2019-04-03T08:51:56.843Z,0.13
2019-04-03T08:54:24.120Z,0.50
2019-04-03T08:56:51.344Z,0.50
2019-04-03T08:59:18.535Z,0.40
2019-04-03T09:01:45.981Z,0.28
2019-04-03T09:04:13.253Z,0.57
2019-04-03T09:06:41.953Z,0.20
2019-04-03T09:09:10.324Z,0.30
2019-04-03T09:11:37.778Z,0.30
2019-04-03T09:14:05.788Z,0.20
2019-04-03T09:16:33.618Z,0.20
2019-04-03T09:19:01.307Z,0.50
2019-04-03T09:21:28.534Z,0.30
2019-04-03T09:23:57.871Z,0.60
2019-04-03T09:26:24.679Z,0.42
2019-04-03T09:28:51.948Z,0.62
2019-04-03T09:31:20.558Z,0.55
2019-04-03T09:33:48.326Z,0.35
2019-04-03T09:36:15.776Z,0.20
2019-04-03T09:38:43.094Z,0.68
2019-04-03T09:41:10.370Z,0.60
2019-04-03T09:43:39.398Z,1.00
2019-04-03T09:46:06.733Z,0.93
2019-04-03T09:48:34.861Z,0.98
2019-04-03T09:51:03.150Z,1.00
2019-04-03T09:53:30.500Z,0.60
2019-04-03T09:55:58.038Z,0.90
2019-04-03T09:58:25.461Z,0.68
2019-04-03T10:00:52.861Z,0.70
2019-04-03T10:03:20.861Z,0.45
2019-04-03T10:05:49.537Z,0.50
2019-04-03T10:08:16.888Z,0.40
2019-04-03T10:10:46.476Z,0.40
2019-04-03T10:13:13.375Z,0.30
2019-04-03T10:15:40.640Z,0.30
2019-04-03T10:18:09.875Z,0.82
2019-04-03T10:20:36.965Z,0.60
2019-04-03T10:23:04.319Z,0.90
2019-04-03T10:25:31.638Z,0.50
2019-04-03T10:27:58.989Z,0.50
2019-04-03T10:30:27.445Z,0.50
2019-04-03T10:32:54.759Z,0.45
2019-04-03T10:35:22.176Z,0.72
2019-04-03T10:37:49.768Z,0.40
2019-04-03T10:40:16.981Z,0.53
2019-04-03T10:42:44.317Z,0.70
2019-04-03T10:45:11.608Z,0.60
2019-04-03T10:47:42.790Z,0.55
2019-04-03T10:50:08.181Z,0.40
2019-04-03T10:52:35.445Z,0.30
2019-04-03T10:55:03.007Z,0.50
2019-04-03T10:57:31.720Z,0.25
2019-04-03T11:00:01.086Z,0.40
2019-04-03T11:02:28.671Z,0.42
2019-04-03T11:04:55.984Z,0.40
2019-04-03T11:07:23.423Z,1.15
2019-04-03T11:09:50.702Z,0.95
2019-04-03T11:12:18.093Z,0.93
2019-04-03T11:14:45.295Z,1.00
2019-04-03T11:17:12.509Z,0.75
2019-04-03T11:19:39.932Z,0.80
2019-04-03T11:22:07.293Z,1.02
2019-04-03T11:24:37.772Z,1.07
2019-04-03T11:27:03.706Z,1.20
2019-04-03T11:29:30.996Z,0.80
2019-04-03T11:31:58.253Z,0.90
2019-04-03T11:34:25.817Z,0.68
2019-04-03T11:36:53.369Z,0.70
2019-04-03T11:39:20.859Z,1.10
2019-04-03T11:41:48.301Z,0.70
2019-04-03T11:44:15.495Z,0.60
2019-04-03T11:46:42.692Z,0.60
2019-04-03T11:49:10.276Z,1.00
2019-04-03T11:51:37.492Z,0.50
2019-04-03T11:54:06.878Z,0.80
2019-04-03T11:56:33.724Z,0.72
2019-04-03T11:59:00.942Z,0.80
2019-04-03T12:01:28.209Z,1.05
2019-04-03T12:03:55.518Z,1.02
2019-04-03T12:06:23.042Z,0.75
2019-04-03T12:08:50.353Z,0.60
2019-04-03T12:11:18.263Z,0.60
2019-04-03T12:13:46.281Z,0.65
2019-04-03T12:16:13.920Z,1.10
2019-04-03T12:18:41.146Z,0.95
2019-04-03T12:21:09.952Z,0.75
2019-04-03T12:23:39.260Z,1.40
2019-04-03T12:26:06.201Z,0.90
2019-04-03T12:28:33.488Z,0.85
2019-04-03T12:31:00.684Z,0.93
2019-04-03T12:33:27.909Z,0.60
2019-04-03T12:35:55.115Z,0.80
2019-04-03T12:38:23.249Z,0.53
2019-04-03T12:40:50.664Z,0.72
2019-04-03T12:43:17.856Z,1.07
2019-04-03T12:45:45.077Z,0.70
2019-04-03T12:48:12.268Z,0.50
2019-04-03T12:50:39.496Z,0.68
2019-04-03T12:53:07.126Z,0.55
2019-04-03T12:55:34.565Z,0.50
2019-04-03T12:58:02.360Z,0.45
2019-04-03T13:00:31.445Z,0.60
2019-04-03T13:02:58.758Z,0.62
2019-04-03T13:05:26.484Z,0.70
2019-04-03T13:07:53.756Z,1.00
2019-04-03T13:10:21.271Z,0.93
2019-04-03T13:12:48.541Z,0.82
2019-04-03T13:15:15.761Z,0.53
2019-04-03T13:17:44.293Z,0.68
2019-04-03T13:20:12.041Z,0.40
2019-04-03T13:22:41.314Z,0.40
2019-04-03T13:25:08.606Z,0.60
2019-04-03T13:27:36.128Z,0.72
2019-04-03T13:30:05.112Z,0.47
2019-04-03T13:32:32.608Z,0.45
2019-04-03T13:34:59.968Z,0.30
2019-04-03T13:37:27.494Z,0.40
2019-04-03T13:39:55.118Z,0.40
2019-04-03T13:42:22.568Z,0.40
2019-04-03T13:44:50.179Z,0.70
2019-04-03T13:47:17.495Z,0.60
2019-04-03T13:49:45.356Z,0.53
2019-04-03T13:52:13.049Z,0.47
2019-04-03T13:54:40.397Z,0.50
2019-04-03T13:57:08.478Z,0.50
2019-04-03T13:59:35.990Z,0.50
2019-04-03T14:02:03.193Z,0.80
2019-04-03T14:04:30.568Z,0.50
2019-04-03T14:06:58.417Z,0.40
2019-04-03T14:09:26.045Z,0.37
2019-04-03T14:11:53.564Z,0.40
2019-04-03T14:14:21.209Z,0.20
2019-04-03T14:16:48.877Z,0.20
2019-04-03T14:19:16.384Z,0.50
2019-04-03T14:21:44.085Z,0.50
2019-04-03T14:24:11.436Z,0.62
2019-04-03T14:26:38.802Z,0.50
2019-04-03T14:29:07.848Z,0.70
2019-04-03T14:31:37.405Z,0.68
2019-04-03T14:34:05.325Z,1.90
2019-04-03T14:36:32.855Z,0.90
2019-04-03T14:39:02.639Z,1.00
2019-04-03T14:41:29.446Z,2.52
2019-04-03T14:44:01.685Z,0.98
2019-04-03T14:46:28.139Z,0.70
2019-04-03T14:48:58.340Z,0.80
2019-04-03T14:51:25.002Z,1.15
2019-04-03T14:53:52.968Z,0.78
2019-04-03T14:56:20.844Z,0.90
2019-04-03T14:58:48.453Z,1.27
2019-04-03T15:01:19.425Z,1.00
2019-04-03T15:03:44.842Z,0.80
2019-04-03T15:06:14.577Z,1.00
2019-04-03T15:08:41.655Z,1.37
2019-04-03T15:11:09.036Z,1.65
2019-04-03T15:13:36.694Z,1.30
2019-04-03T15:16:04.186Z,1.25
2019-04-03T15:18:31.679Z,0.82
2019-04-03T15:20:58.952Z,1.60
2019-04-03T15:23:26.582Z,0.90
2019-04-03T15:25:54.630Z,1.20
2019-04-03T15:28:21.913Z,1.12
2019-04-03T15:30:49.126Z,1.35
2019-04-03T15:33:16.496Z,1.30
2019-04-03T15:35:43.812Z,1.60
2019-04-03T15:38:13.481Z,1.50
2019-04-03T15:40:40.162Z,1.30
2019-04-03T15:43:10.831Z,1.37
2019-04-03T15:45:36.379Z,1.20
2019-04-03T15:48:04.085Z,2.05
2019-04-03T15:50:33.302Z,1.75
2019-04-03T15:53:00.377Z,1.85
2019-04-03T15:55:28.778Z,1.70
2019-04-03T15:57:56.042Z,1.70
2019-04-03T16:00:24.681Z,1.60
2019-04-03T16:02:52.695Z,2.10
2019-04-03T16:05:20.159Z,1.45
2019-04-03T16:07:47.446Z,1.90
2019-04-03T16:10:14.753Z,1.90
2019-04-03T16:12:43.526Z,1.70
2019-04-03T16:15:10.955Z,1.90
2019-04-03T16:17:39.162Z,2.22
2019-04-03T16:20:06.912Z,2.15
2019-04-03T16:22:34.112Z,2.05
2019-04-03T16:25:01.430Z,2.12
2019-04-03T16:27:30.033Z,2.02
2019-04-03T16:29:57.776Z,2.10
2019-04-03T16:32:27.338Z,2.42
2019-04-03T16:34:54.195Z,2.58
2019-04-03T16:37:22.721Z,2.17
2019-04-03T16:39:50.545Z,3.60
2019-04-03T16:42:17.897Z,4.80
2019-04-03T16:44:45.757Z,6.12
2019-04-03T16:47:14.436Z,6.47
2019-04-03T16:49:43.173Z,3.75
2019-04-03T16:52:10.601Z,2.27
2019-04-03T16:54:38.258Z,2.37
2019-04-03T16:57:05.694Z,1.90
2019-04-03T16:59:35.234Z,2.10
2019-04-03T17:02:01.939Z,3.45
2019-04-03T17:04:29.162Z,3.60
2019-04-03T17:06:56.931Z,2.95
2019-04-03T17:09:24.238Z,3.12
2019-04-03T17:11:51.437Z,2.45
2019-04-03T17:14:18.665Z,3.45
2019-04-03T17:16:46.942Z,3.72
2019-04-03T17:19:15.807Z,6.35
2019-04-03T17:21:43.789Z,3.02
2019-04-03T17:24:11.056Z,2.35
2019-04-03T17:26:47.969Z,2.15
2019-04-03T17:29:07.206Z,2.00
2019-04-03T17:31:34.512Z,1.37
2019-04-03T17:34:01.709Z,1.17
2019-04-03T17:36:29.136Z,1.30
2019-04-03T17:38:57.518Z,1.00
2019-04-03T17:41:24.772Z,1.50
2019-04-03T17:43:52.067Z,1.50
2019-04-03T17:46:19.376Z,1.55
2019-04-03T17:48:46.832Z,1.27
2019-04-03T17:51:14.038Z,1.70
2019-04-03T17:53:41.781Z,2.35
2019-04-03T17:56:10.633Z,2.37
2019-04-03T17:58:37.977Z,3.02
2019-04-03T18:01:05.604Z,3.87
2019-04-03T18:03:32.846Z,2.83
2019-04-03T18:06:00.070Z,2.70
2019-04-03T18:08:27.376Z,2.77
2019-04-03T18:10:54.658Z,4.12
2019-04-03T18:13:23.390Z,2.40
2019-04-03T18:15:51.493Z,2.08
2019-04-03T18:18:18.841Z,1.82
2019-04-03T18:20:46.180Z,1.20
2019-04-03T18:23:13.466Z,1.60
2019-04-03T18:25:40.816Z,1.30
2019-04-03T18:28:08.084Z,1.52
2019-04-03T18:30:35.653Z,1.70
2019-04-03T18:33:05.578Z,1.90
2019-04-03T18:35:32.038Z,2.47
2019-04-03T18:37:59.267Z,2.58
2019-04-03T18:40:26.472Z,2.00
2019-04-03T18:42:53.750Z,1.50
2019-04-03T18:45:25.625Z,1.50
2019-04-03T18:47:51.157Z,2.70
2019-04-03T18:50:18.476Z,2.60
2019-04-03T18:52:45.741Z,1.75
2019-04-03T18:55:14.603Z,2.55
2019-04-03T18:57:42.240Z,1.50
2019-04-03T19:00:09.580Z,1.80
2019-04-03T19:02:37.043Z,1.85
2019-04-03T19:05:10.086Z,1.15
2019-04-03T19:07:36.661Z,1.98
2019-04-03T19:10:07.469Z,2.15
2019-04-03T19:12:35.890Z,2.22
2019-04-03T19:15:03.498Z,2.20
2019-04-03T19:17:30.977Z,2.17
2019-04-03T19:20:09.690Z,1.87
2019-04-03T19:22:28.030Z,1.60
2019-04-03T19:24:58.496Z,1.65
2019-04-03T19:27:24.355Z,2.60
2019-04-03T19:29:51.545Z,2.08
2019-04-03T19:32:18.893Z,2.95
2019-04-03T19:34:46.245Z,2.98
2019-04-03T19:37:13.492Z,2.47
2019-04-03T19:39:41.040Z,3.05
2019-04-03T19:42:08.484Z,4.15
2019-04-03T19:44:35.713Z,3.72
2019-04-03T19:47:03.464Z,2.62
2019-04-03T19:49:30.747Z,2.58
2019-04-03T19:51:57.949Z,1.90
2019-04-03T19:54:25.882Z,1.30
2019-04-03T19:56:53.140Z,0.95
2019-04-03T19:59:20.482Z,1.52
2019-04-03T20:01:48.045Z,3.05
2019-04-03T20:04:15.968Z,2.60
2019-04-03T20:06:44.005Z,5.42
2019-04-03T20:09:11.569Z,3.42
2019-04-03T20:11:39.158Z,2.10
2019-04-03T20:14:06.357Z,1.60
2019-04-03T20:16:33.852Z,2.15
2019-04-03T20:19:01.120Z,1.50
2019-04-03T20:21:28.404Z,0.90
2019-04-03T20:23:55.884Z,0.50
2019-04-03T20:26:23.096Z,0.35
2019-04-03T20:28:50.373Z,0.40
2019-04-03T20:31:17.856Z,0.20
2019-04-03T20:33:45.103Z,0.93
2019-04-03T20:36:12.380Z,1.12
2019-04-03T20:38:39.677Z,1.10
2019-04-03T20:41:07.003Z,0.40
2019-04-03T20:43:34.539Z,0.80
2019-04-03T20:46:02.289Z,1.00
2019-04-03T20:48:29.935Z,1.90
2019-04-03T20:50:57.206Z,1.05
2019-04-03T20:53:24.604Z,1.27
2019-04-03T20:55:52.129Z,1.30
2019-04-03T20:58:19.623Z,1.20
2019-04-03T21:00:49.386Z,1.07
2019-04-03T21:03:16.305Z,1.25
2019-04-03T21:05:43.608Z,1.17
2019-04-03T21:08:10.880Z,1.70
2019-04-03T21:10:38.336Z,1.80
2019-04-03T21:13:06.941Z,4.22
2019-04-03T21:15:34.658Z,2.85
2019-04-03T21:18:02.358Z,1.60
2019-04-03T21:20:29.653Z,1.17
2019-04-03T21:22:57.056Z,1.10
2019-04-03T21:25:24.660Z,0.80
2019-04-03T21:27:52.021Z,0.80
2019-04-03T21:30:19.244Z,0.70
2019-04-03T21:32:46.512Z,0.95
2019-04-03T21:35:13.747Z,0.68
2019-04-03T21:37:41.618Z,1.57
2019-04-03T21:40:08.913Z,1.70
2019-04-03T21:42:36.326Z,2.00
2019-04-03T21:45:07.324Z,2.50
2019-04-03T21:47:33.088Z,2.47
2019-04-03T21:50:03.358Z,2.80
2019-04-03T21:52:29.283Z,2.33
2019-04-03T21:54:58.359Z,1.67
2019-04-03T21:57:25.835Z,1.50
2019-04-03T21:59:53.501Z,0.90
2019-04-03T22:02:20.977Z,0.72
2019-04-03T22:04:48.603Z,1.00
2019-04-03T22:07:15.963Z,1.60
2019-04-03T22:09:43.213Z,1.50
2019-04-03T22:12:10.977Z,1.65
2019-04-03T22:14:38.569Z,0.90
2019-04-03T22:17:07.145Z,1.30
2019-04-03T22:19:34.775Z,1.60
2019-04-03T22:22:02.969Z,1.17
2019-04-03T22:24:30.828Z,1.17
2019-04-03T22:26:58.383Z,1.62
2019-04-03T22:29:25.644Z,1.85
2019-04-03T22:31:54.684Z,1.70
2019-04-03T22:34:22.109Z,1.40
2019-04-03T22:36:49.500Z,1.27
2019-04-03T22:39:16.691Z,1.00
2019-04-03T22:41:44.285Z,0.80
2019-04-03T22:44:11.554Z,1.27
2019-04-03T22:46:39.697Z,1.10
2019-04-03T22:49:07.358Z,0.90
2019-04-03T22:51:35.889Z,0.70
2019-04-03T22:54:04.051Z,0.70
2019-04-03T22:56:31.356Z,0.90
2019-04-03T22:58:58.556Z,0.57
2019-04-03T23:01:27.940Z,0.80
2019-04-03T23:03:56.012Z,1.35
2019-04-03T23:06:23.720Z,1.15
2019-04-03T23:08:51.865Z,1.17
2019-04-03T23:11:19.881Z,1.25
2019-04-03T23:13:47.432Z,2.02
2019-04-03T23:16:14.705Z,2.52
2019-04-03T23:18:41.927Z,1.90
2019-04-03T23:21:09.120Z,1.75
2019-04-03T23:23:36.366Z,1.75
2019-04-03T23:26:03.641Z,1.82
2019-04-03T23:28:33.747Z,2.30
2019-04-03T23:30:59.848Z,2.37
2019-04-03T23:33:27.157Z,2.50
2019-04-03T23:35:54.356Z,1.85
2019-04-03T23:38:21.583Z,1.87
2019-04-03T23:40:48.867Z,1.80
2019-04-03T23:43:16.156Z,1.75
2019-04-03T23:45:43.828Z,1.62
2019-04-03T23:48:11.452Z,1.35
2019-04-03T23:50:38.652Z,1.30
2019-04-03T23:53:05.877Z,1.12
2019-04-03T23:55:35.949Z,0.80
2019-04-03T23:58:02.176Z,0.80
